Time;durP1;ratioP1;P1;durP2;ratioP2;P2;SDS_P1;SDS_P2;PMS_P1;PMS_P2;Temp;Humidity;BMP_temperature;BMP_pressure;BME280_temperature;BME280_humidity;BME280_pressure;Samples;Min_cycle;Max_cycle;Signal;HPM_P1;HPM_P2
2024/01/23 00:00:28;;;;;;;1.92;1.63;;;;;;;9.12;nan;100444.47;4995853;28;20218;-83
2024/01/23 00:02:56;;;;;;;3.00;1.77;;;;;;;9.08;nan;100428.91;4992245;28;20581;-82
2024/01/23 00:05:22;;;;;;;1.90;1.13;;;;;;;9.02;nan;100420.47;4985858;28;20196;-83
2024/01/23 00:07:48;;;;;;;3.07;1.70;;;;;;;8.99;nan;100425.81;4982063;28;20524;-83
2024/01/23 00:10:14;;;;;;;3.45;1.70;;;;;;;8.95;nan;100432.97;4983720;28;20329;-83
2024/01/23 00:12:39;;;;;;;2.30;1.40;;;;;;;8.91;nan;100435.78;4988036;28;20669;-82
2024/01/23 00:15:06;;;;;;;2.38;1.30;;;;;;;8.90;nan;100439.34;4987086;28;20211;-82
2024/01/23 00:17:32;;;;;;;1.33;1.23;;;;;;;8.87;nan;100435.06;4985438;28;20203;-82
2024/01/23 00:19:58;;;;;;;2.40;1.00;;;;;;;8.91;nan;100426.19;4984549;28;20270;-83
2024/01/23 00:22:27;;;;;;;14.70;1.70;;;;;;;8.96;nan;100444.28;4995207;28;20228;-84
2024/01/23 00:24:55;;;;;;;4.15;1.30;;;;;;;9.00;nan;100440.63;4984328;28;20520;-82
2024/01/23 00:27:21;;;;;;;2.65;1.00;;;;;;;9.06;nan;100445.59;4979693;28;20200;-82
2024/01/23 00:29:46;;;;;;;8.00;1.87;;;;;;;9.12;nan;100426.13;4983390;28;20204;-82
2024/01/23 00:32:12;;;;;;;1.93;0.97;;;;;;;9.14;nan;100440.03;4982511;28;20246;-83
2024/01/23 00:34:38;;;;;;;1.20;1.07;;;;;;;9.10;nan;100436.69;4988922;28;20461;-82
2024/01/23 00:37:04;;;;;;;2.60;1.00;;;;;;;9.09;nan;100433.22;4981254;28;20216;-83
2024/01/23 00:39:42;;;;;;;4.78;1.70;;;;;;;9.14;nan;100419.06;4985129;28;20969;-84
2024/01/23 00:42:08;;;;;;;1.50;1.00;;;;;;;9.16;nan;100454.78;4985387;28;20273;-81
2024/01/23 00:44:37;;;;;;;6.30;1.30;;;;;;;9.14;nan;100453.13;4984431;28;20204;-81
2024/01/23 00:47:03;;;;;;;2.70;1.33;;;;;;;9.11;nan;100432.31;4972833;28;20963;-80
2024/01/23 00:49:32;;;;;;;3.27;1.20;;;;;;;9.09;nan;100414.00;4979484;28;20265;-83
2024/01/23 00:51:58;;;;;;;6.75;1.77;;;;;;;9.07;nan;100416.72;4987453;28;20192;-84
2024/01/23 00:54:27;;;;;;;1.50;1.20;;;;;;;9.05;nan;100415.94;4984804;28;20214;-83
2024/01/23 00:57:16;;;;;;;1.27;1.08;;;;;;;9.03;nan;100398.56;4981572;28;20668;-83
2024/01/23 00:59:44;;;;;;;3.28;1.40;;;;;;;9.01;nan;100434.47;4989726;28;20202;-82
2024/01/23 01:02:09;;;;;;;3.57;1.63;;;;;;;8.95;nan;100437.38;4980488;28;20212;-83
2024/01/23 01:04:35;;;;;;;1.23;0.97;;;;;;;8.91;nan;100420.94;4986161;28;20207;-83
2024/01/23 01:07:01;;;;;;;2.72;1.00;;;;;;;8.91;nan;100417.44;4986438;28;20203;-83
2024/01/23 01:09:32;;;;;;;1.80;1.40;;;;;;;8.92;nan;100411.31;4991802;28;20490;-83
2024/01/23 01:11:59;;;;;;;3.60;1.23;;;;;;;8.96;nan;100425.97;4987358;28;20208;-83
2024/01/23 01:14:24;;;;;;;4.72;1.60;;;;;;;8.98;nan;100417.13;4980447;28;20211;-84
2024/01/23 01:16:50;;;;;;;4.67;1.33;;;;;;;9.01;nan;100432.69;4971643;28;20187;-82
2024/01/23 01:19:37;;;;;;;7.07;2.00;;;;;;;9.02;nan;100436.19;4984431;28;20208;-82
2024/01/23 01:22:05;;;;;;;3.75;1.40;;;;;;;9.02;nan;100442.28;4989409;28;20475;-82
2024/01/23 01:24:39;;;;;;;4.72;1.60;;;;;;;8.98;nan;100461.66;4995608;28;20212;-78
2024/01/23 01:27:08;;;;;;;5.80;1.50;;;;;;;8.94;nan;100488.94;4983029;28;20285;-81
2024/01/23 01:29:34;;;;;;;3.20;1.88;;;;;;;8.92;nan;100510.88;4986971;28;20207;-81
2024/01/23 01:32:06;;;;;;;4.63;2.50;;;;;;;8.87;nan;100524.16;4982723;28;20184;-80
2024/01/23 01:34:41;;;;;;;5.15;2.95;;;;;;;8.81;nan;100545.38;4991041;28;20224;-80
2024/01/23 01:37:07;;;;;;;3.03;1.73;;;;;;;8.75;nan;100549.09;4993565;28;20203;-85
2024/01/23 01:39:33;;;;;;;4.47;2.30;;;;;;;8.75;nan;100530.75;4991423;28;20443;-84
2024/01/23 01:42:02;;;;;;;9.10;1.98;;;;;;;8.71;nan;100534.41;4988178;28;20471;-84
2024/01/23 01:44:29;;;;;;;4.55;1.70;;;;;;;8.68;nan;100520.59;4990556;28;20234;-83
2024/01/23 01:46:58;;;;;;;6.95;1.90;;;;;;;8.67;nan;100543.31;4985231;28;20367;-82
2024/01/23 01:49:28;;;;;;;2.83;1.50;;;;;;;8.64;nan;100540.81;4994361;28;20242;-86
2024/01/23 01:51:55;;;;;;;5.32;1.70;;;;;;;8.62;nan;100542.66;4991282;28;20180;-84
2024/01/23 01:54:26;;;;;;;2.55;1.48;;;;;;;8.59;nan;100534.94;4993034;28;20210;-83
2024/01/23 01:56:52;;;;;;;4.40;1.27;;;;;;;8.54;nan;100529.03;4989441;28;20188;-83
2024/01/23 01:59:26;;;;;;;5.57;1.52;;;;;;;8.48;nan;100532.75;5003103;28;20194;-85
2024/01/23 02:01:52;;;;;;;4.20;1.13;;;;;;;8.41;nan;100537.34;4991865;28;20196;-84
2024/01/23 02:04:18;;;;;;;4.57;1.73;;;;;;;8.37;nan;100550.59;4999379;28;20222;-83
2024/01/23 02:06:46;;;;;;;3.53;1.10;;;;;;;8.32;nan;100542.94;4992417;28;20195;-85
2024/01/23 02:09:11;;;;;;;2.72;1.27;;;;;;;8.28;nan;100550.97;4990165;28;20202;-86
2024/01/23 02:11:37;;;;;;;7.33;1.40;;;;;;;8.24;nan;100554.63;4994704;28;20667;-85
2024/01/23 02:14:11;;;;;;;1.95;1.40;;;;;;;8.18;nan;100559.19;4995820;28;20242;-84
2024/01/23 02:16:37;;;;;;;1.52;1.30;;;;;;;8.16;nan;100574.06;4988153;28;20242;-85
2024/01/23 02:19:02;;;;;;;1.27;1.00;;;;;;;8.12;nan;100577.72;4992892;28;20199;-85
2024/01/23 02:21:27;;;;;;;3.37;1.37;;;;;;;8.09;nan;100575.22;4991398;28;20199;-85
2024/01/23 02:23:56;;;;;;;2.57;1.23;;;;;;;8.04;nan;100574.53;4991234;28;20220;-85
2024/01/23 02:26:21;;;;;;;3.15;1.48;;;;;;;8.02;nan;100585.97;4989829;28;20250;-85
2024/01/23 02:28:50;;;;;;;2.10;1.10;;;;;;;7.98;nan;100587.84;4996274;28;20195;-85
2024/01/23 02:31:15;;;;;;;1.90;1.00;;;;;;;7.92;nan;100583.69;4992475;28;20215;-85
2024/01/23 02:33:41;;;;;;;2.43;0.93;;;;;;;7.88;nan;100582.09;4991849;28;20211;-85
2024/01/23 02:36:07;;;;;;;1.33;1.10;;;;;;;7.83;nan;100581.44;4991102;28;20218;-85
2024/01/23 02:38:32;;;;;;;1.37;1.03;;;;;;;7.79;nan;100579.81;4991274;28;20203;-84
2024/01/23 02:40:59;;;;;;;4.90;1.40;;;;;;;7.72;nan;100602.75;4992317;28;20699;-85
2024/01/23 02:43:27;;;;;;;1.80;1.00;;;;;;;7.65;nan;100593.41;4992225;28;20220;-85
2024/01/23 02:45:53;;;;;;;3.17;1.13;;;;;;;7.61;nan;100580.50;4991338;28;20184;-85
2024/01/23 02:48:19;;;;;;;1.65;1.10;;;;;;;7.56;nan;100566.72;4981514;28;20187;-85
2024/01/23 02:50:45;;;;;;;2.93;1.47;;;;;;;7.50;nan;100573.03;4987434;28;21030;-87
2024/01/23 02:53:14;;;;;;;6.63;1.80;;;;;;;7.49;nan;100566.09;4990790;28;20204;-85
2024/01/23 02:55:42;;;;;;;2.45;1.27;;;;;;;7.46;nan;100569.69;4984779;28;20211;-86
2024/01/23 02:58:20;;;;;;;9.30;3.23;;;;;;;7.46;nan;100561.00;4992464;28;20196;-84
2024/01/23 03:00:46;;;;;;;4.88;1.90;;;;;;;7.47;nan;100563.53;4983512;28;20196;-86
2024/01/23 03:03:12;;;;;;;1.75;1.40;;;;;;;7.45;nan;100560.13;4991503;28;20208;-86
2024/01/23 03:05:39;;;;;;;2.55;1.05;;;;;;;7.44;nan;100557.56;4994089;28;20195;-86
2024/01/23 03:08:05;;;;;;;3.67;1.70;;;;;;;7.43;nan;100571.56;4994926;28;20184;-86
2024/01/23 03:10:33;;;;;;;5.10;2.10;;;;;;;7.42;nan;100570.69;4979625;28;20204;-84
2024/01/23 03:12:59;;;;;;;3.00;1.30;;;;;;;7.42;nan;100570.69;4981423;28;20196;-83
2024/01/23 03:15:35;;;;;;;1.88;1.23;;;;;;;7.40;nan;100559.44;4979093;28;20203;-82
2024/01/23 03:18:03;;;;;;;3.20;1.10;;;;;;;7.38;nan;100555.19;4978789;28;20295;-86
2024/01/23 03:20:33;;;;;;;4.83;1.10;;;;;;;7.36;nan;100550.00;4984605;28;20318;-86
2024/01/23 03:22:59;;;;;;;5.75;1.50;;;;;;;7.35;nan;100531.78;4988350;28;20517;-86
2024/01/23 03:25:24;;;;;;;2.85;1.33;;;;;;;7.35;nan;100542.22;4980811;28;20290;-86
2024/01/23 03:27:50;;;;;;;4.73;1.57;;;;;;;7.33;nan;100547.50;4983263;28;20223;-86
2024/01/23 03:30:29;;;;;;;3.08;1.80;;;;;;;7.31;nan;100549.28;4983147;28;20211;-86
2024/01/23 03:33:04;;;;;;;2.67;1.20;;;;;;;7.28;nan;100545.03;4991725;28;20238;-85
2024/01/23 03:35:31;;;;;;;3.22;1.67;;;;;;;7.28;nan;100552.03;4989731;28;20210;-86
2024/01/23 03:37:57;;;;;;;2.97;1.60;;;;;;;7.25;nan;100568.66;4986955;28;20467;-84
2024/01/23 03:40:22;;;;;;;4.70;1.10;;;;;;;7.23;nan;100580.91;4982308;28;20282;-84
2024/01/23 03:42:48;;;;;;;1.60;1.50;;;;;;;7.21;nan;100585.38;4985889;28;20274;-84
2024/01/23 03:45:14;;;;;;;4.93;1.40;;;;;;;7.18;nan;100593.28;4984649;28;20283;-84
2024/01/23 03:47:39;;;;;;;5.60;1.30;;;;;;;7.15;nan;100576.88;4985470;28;20259;-84
2024/01/23 03:50:05;;;;;;;3.30;1.77;;;;;;;7.12;nan;100571.75;4985501;28;20188;-83
2024/01/23 03:52:31;;;;;;;1.30;1.00;;;;;;;7.06;nan;100575.44;4983548;28;20535;-84
2024/01/23 03:54:56;;;;;;;3.13;1.80;;;;;;;7.00;nan;100570.41;4982895;28;21187;-84
2024/01/23 03:57:22;;;;;;;2.30;1.40;;;;;;;6.95;nan;100594.06;4982937;28;20852;-83
2024/01/23 03:59:47;;;;;;;4.83;1.60;;;;;;;6.93;nan;100589.78;4979680;28;21234;-83
2024/01/23 04:02:13;;;;;;;6.50;1.50;;;;;;;6.90;nan;100589.91;4981354;28;20207;-83
2024/01/23 04:04:39;;;;;;;5.73;1.90;;;;;;;6.89;nan;100591.66;4984793;28;20445;-83
2024/01/23 04:07:05;;;;;;;2.25;1.60;;;;;;;6.89;nan;100591.66;4982023;28;20306;-83
2024/01/23 04:09:31;;;;;;;3.97;2.00;;;;;;;6.92;nan;100590.72;4984693;28;20842;-84
2024/01/23 04:12:24;;;;;;;3.10;1.50;;;;;;;6.95;nan;100616.72;4986392;28;20207;-83
2024/01/23 04:14:50;;;;;;;5.78;1.80;;;;;;;6.97;nan;100621.00;4985651;28;20215;-83
2024/01/23 04:17:16;;;;;;;3.33;1.30;;;;;;;7.01;nan;100617.38;4981288;28;21030;-83
2024/01/23 04:19:42;;;;;;;8.75;1.83;;;;;;;7.04;nan;100637.31;4984127;28;20203;-83
2024/01/23 04:22:10;;;;;;;3.30;1.63;;;;;;;7.06;nan;100630.28;4981273;28;20314;-83
2024/01/23 04:24:44;;;;;;;3.78;1.50;;;;;;;7.09;nan;100630.19;4980877;28;20188;-82
2024/01/23 04:27:15;;;;;;;2.47;1.10;;;;;;;7.12;nan;100639.69;4979720;28;21298;-82
2024/01/23 04:29:41;;;;;;;4.80;1.80;;;;;;;7.15;nan;100644.78;4983897;28;20731;-82
2024/01/23 04:32:07;;;;;;;1.65;1.13;;;;;;;7.18;nan;100658.59;4984627;28;20180;-82
2024/01/23 04:34:32;;;;;;;7.60;1.43;;;;;;;7.22;nan;100635.88;4983379;28;20559;-84
2024/01/23 04:36:58;;;;;;;4.07;1.57;;;;;;;7.25;nan;100640.97;4996549;28;20207;-84
2024/01/23 04:39:23;;;;;;;2.13;1.30;;;;;;;7.28;nan;100644.34;4980527;28;20211;-83
2024/01/23 04:41:49;;;;;;;3.80;1.60;;;;;;;7.31;nan;100632.94;4982909;28;20200;-84
2024/01/23 04:44:17;;;;;;;3.77;1.23;;;;;;;7.35;nan;100642.38;4976296;28;20567;-86
2024/01/23 04:46:45;;;;;;;1.08;0.98;;;;;;;7.36;nan;100643.22;4977587;28;20203;-84
2024/01/23 04:49:11;;;;;;;3.55;2.00;;;;;;;7.38;nan;100651.88;4973422;28;20274;-85
2024/01/23 04:51:36;;;;;;;4.30;1.58;;;;;;;7.40;nan;100655.28;4981001;28;20657;-86
2024/01/23 04:54:08;;;;;;;2.03;1.20;;;;;;;7.44;nan;100659.50;4976336;28;20206;-85
2024/01/23 04:56:33;;;;;;;2.13;1.58;;;;;;;7.47;nan;100660.25;4975980;28;20254;-84
2024/01/23 04:58:59;;;;;;;2.70;0.90;;;;;;;7.52;nan;100681.88;4977900;28;20203;-86
2024/01/23 05:01:30;;;;;;;6.50;2.10;;;;;;;7.54;nan;100690.53;4988875;28;20279;-85
2024/01/23 05:03:58;;;;;;;2.60;1.38;;;;;;;7.59;nan;100685.16;4986746;28;20199;-85
2024/01/23 05:06:24;;;;;;;5.15;2.00;;;;;;;7.65;nan;100698.00;4980756;28;20219;-83
2024/01/23 05:08:55;;;;;;;5.80;2.30;;;;;;;7.73;nan;100705.59;4985946;28;20440;-87
2024/01/23 05:11:21;;;;;;;6.65;2.58;;;;;;;7.79;nan;100688.84;4981593;28;20679;-84
2024/01/23 05:13:47;;;;;;;3.80;1.77;;;;;;;7.83;nan;100690.41;4979208;28;20211;-85
2024/01/23 05:16:13;;;;;;;3.13;1.70;;;;;;;7.87;nan;100686.81;4985399;28;20196;-83
2024/01/23 05:18:42;;;;;;;3.00;1.60;;;;;;;7.90;nan;100695.38;4981205;28;20979;-82
2024/01/23 05:21:08;;;;;;;4.28;1.63;;;;;;;7.94;nan;100699.63;4979242;28;20692;-83
2024/01/23 05:23:34;;;;;;;3.60;1.40;;;;;;;8.00;nan;100705.53;4981110;28;20212;-86
2024/01/23 05:26:00;;;;;;;4.60;1.97;;;;;;;8.05;nan;100720.16;4984164;28;20191;-86
2024/01/23 05:28:28;;;;;;;3.05;1.30;;;;;;;8.08;nan;100727.91;4982023;28;20195;-83
2024/01/23 05:30:53;;;;;;;5.80;1.50;;;;;;;8.14;nan;100732.91;4986101;28;20204;-86
2024/01/23 05:33:19;;;;;;;7.23;2.57;;;;;;;8.16;nan;100728.50;4979565;28;20216;-83
2024/01/23 05:35:45;;;;;;;4.93;1.53;;;;;;;8.17;nan;100727.56;4975813;28;20532;-83
2024/01/23 05:38:10;;;;;;;6.03;2.50;;;;;;;8.21;nan;100733.56;4981688;28;20544;-83
2024/01/23 05:40:36;;;;;;;3.90;1.57;;;;;;;8.20;nan;100743.16;4983179;28;20223;-85
2024/01/23 05:43:02;;;;;;;3.40;1.80;;;;;;;8.22;nan;100737.88;4984746;28;20779;-84
2024/01/23 05:45:28;;;;;;;6.55;2.38;;;;;;;8.20;nan;100748.38;4985771;28;20458;-83
2024/01/23 05:47:54;;;;;;;2.90;1.70;;;;;;;8.20;nan;100753.63;4988987;28;20224;-82
2024/01/23 05:50:19;;;;;;;7.63;2.00;;;;;;;8.20;nan;100769.31;4985100;28;20810;-86
2024/01/23 05:52:45;;;;;;;4.93;2.17;;;;;;;8.20;nan;100786.81;4987921;28;20208;-82
2024/01/23 05:55:11;;;;;;;7.67;2.53;;;;;;;8.19;nan;100791.19;4980330;28;20455;-83
2024/01/23 05:57:49;;;;;;;5.95;1.63;;;;;;;8.19;nan;100785.94;4983812;28;20699;-81
2024/01/23 06:00:15;;;;;;;7.53;2.05;;;;;;;8.20;nan;100792.88;4984214;28;20210;-82
2024/01/23 06:02:40;;;;;;;5.05;2.08;;;;;;;8.19;nan;100801.66;4980097;28;20231;-82
2024/01/23 06:05:09;;;;;;;5.57;2.33;;;;;;;8.17;nan;100798.22;4979287;28;20598;-83
2024/01/23 06:07:43;;;;;;;3.30;1.38;;;;;;;8.15;nan;100802.66;4983174;28;20204;-83
2024/01/23 06:10:09;;;;;;;5.85;2.28;;;;;;;8.13;nan;100809.72;4985671;28;20262;-83
2024/01/23 06:12:35;;;;;;;4.53;1.25;;;;;;;8.15;nan;100813.13;4981007;28;20673;-84
2024/01/23 06:15:01;;;;;;;2.97;1.77;;;;;;;8.18;nan;100828.75;4979936;28;20723;-82
2024/01/23 06:17:29;;;;;;;12.80;3.85;;;;;;;8.19;nan;100819.97;4993805;28;20748;-82
2024/01/23 06:19:57;;;;;;;5.30;1.60;;;;;;;8.21;nan;100827.78;4980432;28;20672;-83
2024/01/23 06:22:23;;;;;;;14.27;2.03;;;;;;;8.24;nan;100829.44;4978956;28;20211;-83
2024/01/23 06:25:08;;;;;;;12.90;2.03;;;;;;;8.23;nan;100838.19;4981908;28;20298;-83
2024/01/23 06:27:38;;;;;;;2.72;1.52;;;;;;;8.20;nan;100850.47;4982709;28;20207;-82
2024/01/23 06:30:11;;;;;;;3.70;2.22;;;;;;;8.19;nan;100846.16;4981339;28;20215;-82
2024/01/23 06:32:38;;;;;;;4.70;2.67;;;;;;;8.19;nan;100838.28;4983429;28;20207;-82
2024/01/23 06:35:04;;;;;;;4.00;2.17;;;;;;;8.21;nan;100853.97;4977989;28;20262;-83
2024/01/23 06:37:30;;;;;;;3.40;1.65;;;;;;;8.19;nan;100856.63;4970802;28;20219;-82
2024/01/23 06:39:59;;;;;;;1.63;1.40;;;;;;;8.20;nan;100866.16;4971050;28;20807;-82
2024/01/23 06:42:25;;;;;;;3.67;2.22;;;;;;;8.21;nan;100872.28;4972482;28;20305;-82
2024/01/23 06:44:50;;;;;;;4.93;1.57;;;;;;;8.22;nan;100867.91;4966684;28;20203;-82
2024/01/23 06:47:17;;;;;;;5.87;1.70;;;;;;;8.20;nan;100866.16;4966300;28;20185;-82
2024/01/23 06:49:42;;;;;;;7.78;2.53;;;;;;;8.21;nan;100874.91;4964851;28;20325;-82
2024/01/23 06:52:08;;;;;;;5.73;1.67;;;;;;;8.19;nan;100882.78;4971509;28;20200;-87
2024/01/23 06:54:33;;;;;;;10.47;4.40;;;;;;;8.16;nan;100887.28;4974369;28;20204;-85
2024/01/23 06:57:00;;;;;;;4.13;2.70;;;;;;;8.12;nan;100896.97;4976723;28;20203;-87
2024/01/23 06:59:49;;;;;;;5.68;2.45;;;;;;;8.11;nan;100904.91;4977942;28;20234;-87
2024/01/23 07:02:25;;;;;;;8.48;3.20;;;;;;;8.08;nan;100915.47;4997305;28;20227;-86
2024/01/23 07:04:50;;;;;;;5.00;2.20;;;;;;;8.08;nan;100913.69;4979565;28;20199;-86
2024/01/23 07:07:16;;;;;;;6.00;2.10;;;;;;;8.10;nan;100919.75;4978990;28;20892;-87
2024/01/23 07:09:41;;;;;;;7.13;2.47;;;;;;;8.11;nan;100924.06;4978249;28;20211;-85
2024/01/23 07:12:10;;;;;;;2.43;1.73;;;;;;;8.11;nan;100931.91;4977709;28;20203;-87
2024/01/23 07:14:35;;;;;;;5.25;3.85;;;;;;;8.12;nan;100941.47;4975769;28;20216;-82
2024/01/23 07:17:01;;;;;;;5.77;2.73;;;;;;;8.13;nan;100939.72;4977101;28;20759;-82
2024/01/23 07:19:27;;;;;;;6.88;2.53;;;;;;;8.16;nan;100947.47;4976634;28;20208;-82
2024/01/23 07:21:52;;;;;;;8.57;2.70;;;;;;;8.17;nan;100949.19;4975660;28;20200;-82
2024/01/23 07:24:18;;;;;;;7.63;3.03;;;;;;;8.19;nan;100952.63;4976068;28;20207;-82
2024/01/23 07:26:43;;;;;;;7.30;3.40;;;;;;;8.19;nan;100971.78;4973412;28;20388;-86
2024/01/23 07:29:09;;;;;;;12.87;3.03;;;;;;;8.18;nan;100975.31;4972653;28;20220;-86
2024/01/23 07:31:35;;;;;;;4.22;2.35;;;;;;;8.16;nan;100982.34;4972100;28;20311;-86
2024/01/23 07:34:00;;;;;;;2.50;1.40;;;;;;;8.14;nan;100973.69;4973393;28;20717;-86
2024/01/23 07:36:26;;;;;;;5.37;2.97;;;;;;;8.12;nan;100975.50;4974574;28;20207;-86
2024/01/23 07:38:52;;;;;;;5.30;2.83;;;;;;;8.12;nan;100975.50;4973016;28;20498;-87
2024/01/23 07:41:17;;;;;;;6.10;4.10;;;;;;;8.12;nan;100978.09;4974486;28;20311;-87
2024/01/23 07:43:43;;;;;;;10.17;4.27;;;;;;;8.09;nan;100978.22;4972420;28;20466;-86
2024/01/23 07:46:08;;;;;;;9.20;4.63;;;;;;;8.05;nan;100984.47;4973523;28;20688;-86
2024/01/23 07:48:34;;;;;;;16.83;7.07;;;;;;;8.02;nan;100992.41;4973339;28;20229;-87
2024/01/23 07:51:00;;;;;;;11.57;5.97;;;;;;;8.00;nan;100994.19;4975076;28;21291;-86
2024/01/23 07:53:29;;;;;;;10.77;5.73;;;;;;;8.01;nan;101003.75;4971985;28;20231;-87
2024/01/23 07:55:54;;;;;;;13.25;5.78;;;;;;;8.02;nan;101005.50;4973511;28;20200;-84
2024/01/23 07:58:20;;;;;;;11.63;5.83;;;;;;;8.03;nan;101004.56;4969830;28;20200;-84
2024/01/23 08:00:45;;;;;;;13.73;6.90;;;;;;;8.05;nan;101012.38;4974298;28;20208;-82
2024/01/23 08:03:10;;;;;;;8.63;4.70;;;;;;;8.07;nan;101021.88;4969776;28;20238;-85
2024/01/23 08:05:36;;;;;;;8.40;4.30;;;;;;;8.10;nan;101018.31;4975748;28;20195;-84
2024/01/23 08:08:02;;;;;;;7.43;3.33;;;;;;;8.08;nan;101007.91;4974541;28;20682;-85
2024/01/23 08:10:29;;;;;;;4.57;2.80;;;;;;;8.11;nan;101020.03;4974498;28;20903;-83
2024/01/23 08:12:55;;;;;;;13.98;5.55;;;;;;;8.11;nan;101020.91;4975477;28;20577;-84
2024/01/23 08:15:23;;;;;;;5.55;2.67;;;;;;;8.12;nan;101019.97;4973928;28;20579;-84
2024/01/23 08:17:49;;;;;;;4.47;2.45;;;;;;;8.13;nan;101024.31;4973303;28;20215;-83
2024/01/23 08:20:14;;;;;;;4.40;3.13;;;;;;;8.13;nan;101023.47;4977934;28;20238;-84
2024/01/23 08:22:39;;;;;;;9.33;3.67;;;;;;;8.15;nan;101019.03;4978199;28;20472;-84
2024/01/23 08:25:05;;;;;;;2.83;1.83;;;;;;;8.17;nan;101020.69;4977524;28;20282;-84
2024/01/23 08:27:31;;;;;;;7.50;2.63;;;;;;;8.23;nan;101024.03;4978957;28;20203;-85
2024/01/23 08:29:56;;;;;;;5.57;2.20;;;;;;;8.28;nan;101022.97;4979461;28;20207;-84
2024/01/23 08:32:21;;;;;;;5.40;2.17;;;;;;;8.37;nan;101033.19;4981955;28;20223;-84
2024/01/23 08:34:47;;;;;;;5.43;2.47;;;;;;;8.47;nan;101038.16;4979654;28;20525;-84
2024/01/23 08:37:14;;;;;;;10.80;2.17;;;;;;;8.53;nan;101044.06;4978433;28;20196;-84
2024/01/23 08:39:40;;;;;;;4.63;2.63;;;;;;;8.57;nan;101050.91;4976577;28;20458;-84
2024/01/23 08:42:08;;;;;;;6.63;2.33;;;;;;;8.57;nan;101063.13;4989408;28;20299;-88
2024/01/23 08:44:35;;;;;;;5.15;2.22;;;;;;;8.57;nan;101057.91;4982261;28;20470;-86
2024/01/23 08:47:02;;;;;;;4.03;2.33;;;;;;;8.56;nan;101067.53;4981013;28;20298;-86
2024/01/23 08:49:27;;;;;;;7.38;2.05;;;;;;;8.59;nan;101064.81;4995400;28;20230;-86
2024/01/23 08:51:53;;;;;;;9.47;2.93;;;;;;;8.63;nan;101063.78;4982908;28;20199;-88
2024/01/23 08:54:19;;;;;;;11.03;2.50;;;;;;;8.69;nan;101069.72;4982059;28;20216;-86
2024/01/23 08:56:46;;;;;;;6.30;1.67;;;;;;;8.76;nan;101079.13;4977732;28;20434;-84
2024/01/23 08:59:13;;;;;;;6.07;2.33;;;;;;;8.81;nan;101079.81;4977273;28;20224;-82
2024/01/23 09:01:39;;;;;;;6.57;1.73;;;;;;;8.88;nan;101081.31;4983708;28;20767;-81
2024/01/23 09:04:05;;;;;;;12.70;4.60;;;;;;;8.96;nan;101079.28;4978141;28;20307;-81
2024/01/23 09:06:31;;;;;;;7.00;1.87;;;;;;;9.13;nan;101076.13;4980770;28;20458;-82
2024/01/23 09:08:56;;;;;;;5.67;0.97;;;;;;;9.29;nan;101064.22;4978128;28;20195;-82
2024/01/23 09:11:22;;;;;;;6.20;2.40;;;;;;;9.36;nan;101077.94;4977086;28;20192;-81
2024/01/23 09:13:47;;;;;;;9.20;3.13;;;;;;;9.42;nan;101079.50;4978414;28;20207;-79
2024/01/23 09:16:13;;;;;;;6.10;2.23;;;;;;;9.56;nan;101069.38;4975930;28;20271;-83
2024/01/23 09:18:40;;;;;;;5.50;2.30;;;;;;;9.78;nan;101074.69;4978293;28;20207;-83
2024/01/23 09:21:08;;;;;;;8.30;2.00;;;;;;;10.27;nan;101064.13;4979121;28;20609;-83
2024/01/23 09:23:34;;;;;;;4.65;2.38;;;;;;;11.23;nan;101068.06;4973137;28;20303;-85
2024/01/23 09:25:59;;;;;;;6.78;2.63;;;;;;;12.22;nan;101067.16;4969496;28;20196;-84
2024/01/23 09:28:27;;;;;;;9.00;2.13;;;;;;;;;;4972949;28;20215;-81
2024/01/23 09:30:52;;;;;;;7.00;1.65;;;;;;;;;;4972513;28;20200;-83
2024/01/23 09:33:18;;;;;;;3.33;1.20;;;;;;;;;;4971660;28;20715;-83
2024/01/23 09:35:43;;;;;;;5.27;1.90;;;;;;;;;;4968760;28;20196;-82
2024/01/23 09:38:09;;;;;;;3.67;1.50;;;;;;;15.30;nan;101081.56;4970963;28;20663;-82
2024/01/23 09:40:34;;;;;;;6.50;1.80;;;;;;;15.33;nan;101080.53;4968793;28;20625;-82
2024/01/23 09:43:00;;;;;;;3.53;2.00;;;;;;;15.19;nan;101081.38;4971286;28;20284;-82
2024/01/23 09:45:31;;;;;;;4.13;2.07;;;;;;;15.00;nan;101082.44;4973794;28;20196;-82
2024/01/23 09:48:02;;;;;;;2.70;2.05;;;;;;;14.66;nan;101095.91;4976246;28;20968;-84
2024/01/23 09:50:28;;;;;;;4.53;2.10;;;;;;;14.22;nan;101105.38;4977215;28;20199;-84
2024/01/23 09:52:57;;;;;;;3.50;2.10;;;;;;;13.79;nan;101109.47;4976155;28;20207;-84
2024/01/23 09:55:22;;;;;;;2.92;1.63;;;;;;;13.34;nan;101116.19;4973735;28;20210;-84
2024/01/23 09:57:49;;;;;;;3.90;1.60;;;;;;;13.19;nan;101113.38;4971687;28;20584;-83
2024/01/23 10:00:15;;;;;;;4.50;1.63;;;;;;;13.14;nan;101104.84;4975574;28;20191;-84
2024/01/23 10:02:42;;;;;;;5.43;1.50;;;;;;;13.01;nan;101109.88;4974772;28;20247;-83
2024/01/23 10:05:09;;;;;;;5.43;1.65;;;;;;;13.28;nan;101105.06;4973576;28;20235;-83
2024/01/23 10:07:38;;;;;;;4.53;2.30;;;;;;;13.94;nan;101100.75;4971972;28;20180;-83
2024/01/23 10:10:17;;;;;;;3.95;1.67;;;;;;;14.49;nan;101102.13;4970408;28;20576;-84
2024/01/23 10:12:47;;;;;;;5.47;2.45;;;;;;;14.71;nan;101100.00;4973924;28;20276;-83
2024/01/23 10:15:16;;;;;;;3.38;2.10;;;;;;;14.75;nan;101098.91;4974404;28;20219;-83
2024/01/23 10:17:47;;;;;;;4.28;2.05;;;;;;;14.62;nan;101115.56;4975373;28;20191;-83
2024/01/23 10:20:13;;;;;;;3.85;2.55;;;;;;;14.29;nan;101111.19;4975420;28;20291;-83
2024/01/23 10:22:38;;;;;;;3.20;2.40;;;;;;;13.84;nan;101110.94;4975332;28;20355;-83
2024/01/23 10:25:15;;;;;;;8.77;3.93;;;;;;;13.43;nan;101115.75;4976892;28;21003;-84
2024/01/23 10:27:40;;;;;;;7.13;3.05;;;;;;;13.06;nan;101113.16;4973473;28;20683;-84
2024/01/23 10:30:07;;;;;;;4.80;2.80;;;;;;;12.76;nan;101110.25;4977594;28;20243;-85
2024/01/23 10:32:36;;;;;;;11.20;4.05;;;;;;;12.49;nan;101109.78;4979961;28;20203;-86
2024/01/23 10:35:06;;;;;;;11.13;4.90;;;;;;;12.22;nan;101116.34;4978296;28;20747;-82
2024/01/23 10:37:35;;;;;;;11.70;3.30;;;;;;;11.99;nan;101122.66;4979340;28;20092;-82
2024/01/23 10:40:01;;;;;;;5.22;2.92;;;;;;;11.80;nan;101112.94;4977576;28;20923;-83
2024/01/23 10:42:28;;;;;;;3.25;1.80;;;;;;;11.69;nan;101105.53;4977802;28;20515;-83
2024/01/23 10:44:54;;;;;;;8.77;3.70;;;;;;;11.60;nan;101105.06;4979292;28;20559;-83
2024/01/23 10:47:20;;;;;;;9.85;4.15;;;;;;;11.50;nan;101112.50;4979785;28;20196;-83
2024/01/23 10:49:46;;;;;;;8.98;3.67;;;;;;;11.35;nan;101118.44;4978904;28;20295;-83
2024/01/23 10:52:17;;;;;;;11.27;4.40;;;;;;;11.28;nan;101110.78;4977844;28;20563;-80
2024/01/23 10:54:48;;;;;;;5.15;3.13;;;;;;;11.31;nan;101107.19;4974049;28;20473;-81
2024/01/23 10:57:24;;;;;;;5.63;2.60;;;;;;;11.37;nan;101106.06;4976732;28;20176;-80
2024/01/23 10:59:51;;;;;;;5.07;1.98;;;;;;;11.34;nan;101091.28;4974442;28;20191;-81
2024/01/23 11:02:32;;;;;;;7.80;3.17;;;;;;;11.33;nan;101083.44;4975711;28;20202;-81
2024/01/23 11:04:58;;;;;;;10.05;4.10;;;;;;;11.34;nan;101077.25;4974939;28;20200;-81
2024/01/23 11:07:31;;;;;;;7.38;2.33;;;;;;;11.30;nan;101064.25;4976890;28;20803;-81
2024/01/23 11:10:09;;;;;;;8.20;1.83;;;;;;;11.28;nan;101062.59;4974965;28;20196;-81
2024/01/23 11:12:54;;;;;;;7.13;2.33;;;;;;;11.27;nan;101061.75;4974011;28;20207;-81
2024/01/23 11:15:21;;;;;;;3.80;1.70;;;;;;;11.24;nan;101064.50;4977954;28;20199;-80
2024/01/23 11:17:47;;;;;;;10.85;1.98;;;;;;;11.27;nan;101067.00;4978484;28;20222;-81
2024/01/23 11:20:18;;;;;;;3.33;1.38;;;;;;;11.28;nan;101063.44;4975084;28;20195;-80
2024/01/23 11:22:44;;;;;;;3.90;2.15;;;;;;;11.26;nan;101067.94;4977814;28;20673;-80
2024/01/23 11:25:10;;;;;;;4.55;2.45;;;;;;;11.29;nan;101064.31;4975734;28;20195;-80
2024/01/23 11:27:39;;;;;;;1.90;1.60;;;;;;;11.33;nan;101065.03;4975430;28;20289;-80
2024/01/23 11:30:10;;;;;;;6.90;1.70;;;;;;;11.39;nan;101070.88;4972676;28;20187;-80
2024/01/23 11:32:36;;;;;;;4.30;3.35;;;;;;;11.48;nan;101062.59;4976805;28;20203;-80
2024/01/23 11:35:03;;;;;;;4.33;1.43;;;;;;;11.53;nan;101059.75;4975619;28;20210;-80
2024/01/23 11:37:31;;;;;;;3.97;1.20;;;;;;;11.55;nan;101055.25;4975713;28;20195;-80
2024/01/23 11:39:59;;;;;;;3.05;1.77;;;;;;;11.56;nan;101049.09;4974185;28;20270;-81
2024/01/23 11:42:37;;;;;;;8.38;1.85;;;;;;;11.54;nan;101050.94;4970981;28;20212;-80
2024/01/23 11:45:26;;;;;;;3.88;1.50;;;;;;;11.54;nan;101039.56;4972546;28;20680;-80
2024/01/23 11:47:55;;;;;;;2.90;1.73;;;;;;;11.49;nan;101052.91;4973345;28;20213;-80
2024/01/23 11:50:20;;;;;;;4.20;1.50;;;;;;;11.45;nan;101053.97;4988260;28;20199;-79